Wetterstation Vordersexau
Wetterdaten: Woche 08.09.14 - 14.09.14 (KW37)
Datum Zeit Temp. A. Feuchte A. Luftdruck Regen Wind Richtung Taupunkt Windchill Windben
08.09.2014 00:00 14,8 C 84 % 985,2 hPa 0,0 l/m 0,0 km/h N-NO 12,1 C 14,8 C 0,0 km/h
08.09.2014 01:00 14,3 C 85 % 985,4 hPa 0,0 l/m 0,0 km/h O-NO 11,8 C 14,3 C 0,0 km/h
08.09.2014 02:00 13,6 C 85 % 985,4 hPa 0,0 l/m 0,0 km/h O-NO 11,1 C 13,6 C 0,0 km/h
08.09.2014 03:00 13,2 C 85 % 985,7 hPa 0,0 l/m 0,0 km/h O-NO 10,7 C 13,2 C 0,0 km/h
08.09.2014 04:00 12,9 C 85 % 985,7 hPa 0,0 l/m 0,0 km/h O-NO 10,4 C 12,9 C 0,0 km/h
08.09.2014 05:00 12,4 C 85 % 985,7 hPa 0,0 l/m 0,0 km/h O-NO 9,9 C 12,4 C 0,0 km/h
08.09.2014 06:00 12,6 C 84 % 985,5 hPa 0,0 l/m 0,0 km/h O-NO 10,0 C 12,6 C 0,0 km/h
08.09.2014 07:00 13,6 C 84 % 986,0 hPa 0,0 l/m 0,0 km/h O 10,9 C 13,6 C 0,0 km/h
08.09.2014 08:00 16,6 C 73 % 986,2 hPa 0,0 l/m 0,0 km/h W-NW 11,7 C 16,6 C 0,0 km/h
08.09.2014 09:00 24,3 C 68 % 986,5 hPa 0,0 l/m 0,0 km/h W 18,0 C 24,3 C 0,0 km/h
08.09.2014 10:00 26,5 C 63 % 987,1 hPa 0,0 l/m 0,0 km/h W-SW 18,9 C 26,5 C 0,0 km/h
08.09.2014 11:00 29,8 C 52 % 986,9 hPa 0,0 l/m 0,0 km/h W 18,9 C 29,8 C 0,0 km/h
08.09.2014 12:00 30,8 C 49 % 986,6 hPa 0,0 l/m 0,0 km/h W 18,8 C 30,8 C 0,0 km/h
08.09.2014 13:00 29,5 C 52 % 986,3 hPa 0,0 l/m 0,0 km/h S-SW 18,6 C 29,5 C 0,0 km/h
08.09.2014 14:00 30,6 C 49 % 986,1 hPa 0,0 l/m 0,0 km/h N 18,6 C 30,6 C 0,0 km/h
08.09.2014 15:00 33,4 C 42 % 985,9 hPa 0,0 l/m 0,0 km/h W-NW 18,7 C 33,4 C 0,0 km/h
08.09.2014 16:00 35,9 C 37 % 985,7 hPa 0,0 l/m 0,0 km/h N-NO 18,9 C 35,9 C 0,0 km/h
08.09.2014 17:00 35,9 C 36 % 985,6 hPa 0,0 l/m 0,0 km/h N-NO 18,4 C 35,9 C 0,0 km/h
08.09.2014 18:00 32,1 C 41 % 985,7 hPa 0,8 l/m 0,0 km/h N-NO 17,2 C 32,1 C 0,0 km/h
08.09.2014 19:00 23,3 C 60 % 986,0 hPa 0,0 l/m 0,0 km/h O-SO 15,1 C 23,3 C 0,0 km/h
08.09.2014 20:00 18,9 C 75 % 986,8 hPa 0,0 l/m 0,0 km/h O 14,4 C 18,9 C 0,0 km/h
08.09.2014 21:00 17,8 C 79 % 987,3 hPa 0,0 l/m 0,0 km/h O-NO 14,1 C 17,8 C 0,0 km/h
08.09.2014 22:00 17,1 C 82 % 987,3 hPa 0,0 l/m 0,0 km/h SO 14,0 C 17,1 C 0,0 km/h
08.09.2014 23:00 16,4 C 83 % 987,0 hPa 0,0 l/m 0,0 km/h SO 13,5 C 16,4 C 0,0 km/h
09.09.2014 00:00 15,9 C 84 % 987,2 hPa 0,0 l/m 0,0 km/h NO 13,2 C 15,9 C 0,0 km/h
09.09.2014 01:00 15,2 C 84 % 987,6 hPa 0,0 l/m 0,0 km/h O-SO 12,5 C 15,2 C 0,0 km/h
09.09.2014 02:00 14,6 C 85 % 987,4 hPa 0,0 l/m 0,0 km/h O 12,1 C 14,6 C 0,0 km/h
09.09.2014 03:00 14,2 C 85 % 987,1 hPa 0,0 l/m 0,0 km/h O 11,7 C 14,2 C 0,0 km/h
09.09.2014 04:00 13,6 C 85 % 987,0 hPa 0,0 l/m 0,0 km/h O-NO 11,1 C 13,6 C 0,0 km/h
09.09.2014 05:00 13,3 C 85 % 987,2 hPa 0,0 l/m 0,0 km/h O-NO 10,8 C 13,3 C 0,0 km/h
09.09.2014 06:00 13,7 C 84 % 987,4 hPa 0,0 l/m 0,0 km/h O-NO 11,0 C 13,7 C 0,0 km/h
09.09.2014 07:00 15,2 C 84 % 987,7 hPa 0,0 l/m 0,0 km/h NO 12,5 C 15,2 C 0,0 km/h
09.09.2014 08:00 15,9 C 83 % 988,0 hPa 0,0 l/m 0,0 km/h W 13,0 C 15,9 C 0,0 km/h
09.09.2014 09:00 17,1 C 85 % 988,2 hPa 0,0 l/m 0,0 km/h W 14,6 C 17,1 C 0,0 km/h
09.09.2014 10:00 19,6 C 82 % 988,3 hPa 0,0 l/m 1,3 km/h W-SW 16,4 C 19,6 C 0,7 km/h
09.09.2014 11:00 21,9 C 76 % 988,4 hPa 0,0 l/m 7,8 km/h W-NW 17,5 C 21,4 C 4,3 km/h
09.09.2014 12:00 27,4 C 61 % 987,9 hPa 0,0 l/m 0,6 km/h NW 19,2 C 27,4 C 0,4 km/h
09.09.2014 13:00 27,4 C 59 % 987,7 hPa 0,0 l/m 1,9 km/h W 18,7 C 27,4 C 1,1 km/h
09.09.2014 14:00 27,8 C 58 % 987,0 hPa 0,0 l/m 0,0 km/h N 18,8 C 27,8 C 0,0 km/h
09.09.2014 15:00 29,2 C 53 % 986,9 hPa 0,0 l/m 0,0 km/h W-NW 18,6 C 29,2 C 0,0 km/h
09.09.2014 16:00 30,4 C 48 % 986,6 hPa 0,0 l/m 0,0 km/h N 18,1 C 30,4 C 0,0 km/h
09.09.2014 17:00 30,9 C 47 % 986,4 hPa 0,0 l/m 0,0 km/h N-NW 18,2 C 30,9 C 0,0 km/h
09.09.2014 18:00 27,4 C 53 % 986,4 hPa 0,0 l/m 0,0 km/h N 17,0 C 27,4 C 0,0 km/h
09.09.2014 19:00 21,5 C 66 % 986,7 hPa 0,0 l/m 0,0 km/h O-SO 14,9 C 21,5 C 0,0 km/h
09.09.2014 20:00 18,1 C 76 % 987,2 hPa 0,0 l/m 0,0 km/h O-SO 13,8 C 18,1 C 0,0 km/h
09.09.2014 21:00 17,3 C 80 % 987,3 hPa 0,0 l/m 0,0 km/h O-SO 13,8 C 17,3 C 0,0 km/h
09.09.2014 22:00 15,9 C 83 % 987,0 hPa 0,0 l/m 0,0 km/h N-NO 13,0 C 15,9 C 0,0 km/h
09.09.2014 23:00 14,8 C 84 % 987,3 hPa 0,0 l/m 0,0 km/h N-NO 12,1 C 14,8 C 0,0 km/h
10.09.2014 00:00 14,8 C 85 % 987,4 hPa 0,0 l/m 0,0 km/h N-NO 12,3 C 14,8 C 0,0 km/h
10.09.2014 01:00 14,6 C 85 % 987,0 hPa 0,0 l/m 0,0 km/h N-NO 12,1 C 14,6 C 0,0 km/h
10.09.2014 02:00 14,3 C 85 % 987,0 hPa 0,0 l/m 0,0 km/h N-NO 11,8 C 14,3 C 0,0 km/h
10.09.2014 03:00 14,0 C 85 % 987,0 hPa 0,0 l/m 0,0 km/h N-NO 11,5 C 14,0 C 0,0 km/h
10.09.2014 04:00 14,4 C 85 % 986,9 hPa 0,0 l/m 0,0 km/h W 11,9 C 14,4 C 0,0 km/h
10.09.2014 05:00 13,9 C 85 % 987,0 hPa 0,0 l/m 0,0 km/h W 11,4 C 13,9 C 0,0 km/h
10.09.2014 06:00 12,9 C 85 % 986,8 hPa 0,0 l/m 0,0 km/h W 10,4 C 12,9 C 0,0 km/h
10.09.2014 07:00 12,8 C 85 % 987,0 hPa 0,0 l/m 0,0 km/h W 10,3 C 12,8 C 0,0 km/h
10.09.2014 08:00 13,8 C 85 % 987,3 hPa 0,0 l/m 0,0 km/h SW 11,3 C 13,8 C 0,0 km/h
10.09.2014 09:00 15,9 C 83 % 987,4 hPa 0,0 l/m 0,0 km/h S 13,0 C 15,9 C 0,0 km/h
10.09.2014 10:00 18,9 C 76 % 987,4 hPa 0,0 l/m 0,0 km/h S 14,6 C 18,9 C 0,0 km/h
10.09.2014 11:00 23,7 C 62 % 987,1 hPa 0,0 l/m 0,6 km/h W 16,0 C 23,7 C 0,4 km/h
10.09.2014 12:00 25,1 C 58 % 986,8 hPa 0,0 l/m 11,0 km/h W 16,2 C 24,1 C 6,1 km/h
10.09.2014 13:00 25,1 C 56 % 986,2 hPa 0,0 l/m 3,2 km/h N-NO 15,7 C 25,1 C 1,8 km/h
10.09.2014 14:00 25,7 C 51 % 985,8 hPa 0,0 l/m 11,0 km/h NW 14,8 C 24,8 C 6,1 km/h
10.09.2014 15:00 26,3 C 48 % 985,6 hPa 0,0 l/m 0,0 km/h N-NO 14,4 C 26,3 C 0,0 km/h
10.09.2014 16:00 26,3 C 47 % 985,4 hPa 0,0 l/m 0,0 km/h N-NO 14,1 C 26,3 C 0,0 km/h
10.09.2014 17:00 27,6 C 42 % 985,3 hPa 0,0 l/m 0,0 km/h N-NO 13,5 C 27,6 C 0,0 km/h
10.09.2014 18:00 25,4 C 45 % 985,2 hPa 0,0 l/m 23,3 km/h N 12,6 C 22,9 C 13,0 km/h
10.09.2014 19:00 19,0 C 59 % 985,3 hPa 0,0 l/m 2,6 km/h N-NO 10,8 C 19,0 C 1,4 km/h
10.09.2014 20:00 15,9 C 68 % 985,6 hPa 0,0 l/m 0,0 km/h N-NO 10,0 C 15,9 C 0,0 km/h
10.09.2014 21:00 13,9 C 74 % 985,8 hPa 0,0 l/m 0,0 km/h N-NO 9,3 C 13,9 C 0,0 km/h
10.09.2014 22:00 13,4 C 78 % 985,9 hPa 0,0 l/m 0,0 km/h N-NO 9,6 C 13,4 C 0,0 km/h
10.09.2014 23:00 12,8 C 81 % 985,8 hPa 0,0 l/m 0,0 km/h N-NO 9,6 C 12,8 C 0,0 km/h
11.09.2014 00:00 11,8 C 82 % 985,7 hPa 0,0 l/m 0,0 km/h N-NO 8,8 C 11,8 C 0,0 km/h
11.09.2014 01:00 11,7 C 83 % 985,7 hPa 0,0 l/m 0,0 km/h W-NW 8,9 C 11,7 C 0,0 km/h
11.09.2014 02:00 9,5 C 83 % 985,4 hPa 0,0 l/m 0,0 km/h W 6,8 C 9,5 C 0,0 km/h
11.09.2014 03:00 10,6 C 85 % 985,4 hPa 0,0 l/m 0,0 km/h SW 8,2 C 10,6 C 0,0 km/h
11.09.2014 04:00 9,9 C 85 % 985,5 hPa 0,0 l/m 0,0 km/h SW 7,5 C 9,9 C 0,0 km/h
11.09.2014 05:00 9,2 C 85 % 985,0 hPa 0,0 l/m 0,0 km/h S-SW 6,8 C 9,2 C 0,0 km/h
11.09.2014 06:00 8,2 C 86 % 985,2 hPa 0,0 l/m 0,0 km/h SW 6,0 C 8,2 C 0,0 km/h
11.09.2014 07:00 10,1 C 85 % 985,9 hPa 0,0 l/m 0,0 km/h W-SW 7,7 C 10,1 C 0,0 km/h
11.09.2014 08:00 11,5 C 85 % 986,0 hPa 0,0 l/m 0,0 km/h W 9,1 C 11,5 C 0,0 km/h
11.09.2014 09:00 14,5 C 83 % 986,3 hPa 0,0 l/m 0,0 km/h W 11,6 C 14,5 C 0,0 km/h
11.09.2014 10:00 20,1 C 69 % 986,4 hPa 0,0 l/m 20,7 km/h N 14,2 C 16,2 C 11,5 km/h
11.09.2014 11:00 24,1 C 56 % 986,2 hPa 0,0 l/m 0,0 km/h N 14,8 C 24,1 C 0,0 km/h
11.09.2014 12:00 21,5 C 59 % 986,1 hPa 0,0 l/m 0,0 km/h N 13,1 C 21,5 C 0,0 km/h
11.09.2014 13:00 22,5 C 50 % 985,8 hPa 0,0 l/m 18,8 km/h N-NO 11,5 C 19,6 C 10,4 km/h
11.09.2014 14:00 23,6 C 47 % 985,6 hPa 0,0 l/m 7,8 km/h N-NO 11,6 C 23,2 C 4,3 km/h
11.09.2014 15:00 27,6 C 42 % 985,7 hPa 0,0 l/m 2,6 km/h N 13,5 C 27,6 C 1,4 km/h
11.09.2014 16:00 24,3 C 45 % 985,7 hPa 0,0 l/m 0,6 km/h N 11,6 C 24,3 C 0,4 km/h
11.09.2014 17:00 19,1 C 55 % 986,3 hPa 0,0 l/m 1,9 km/h N-NO 9,8 C 19,1 C 1,1 km/h
11.09.2014 18:00 16,0 C 62 % 986,6 hPa 0,0 l/m 0,0 km/h N-NO 8,7 C 16,0 C 0,0 km/h
11.09.2014 19:00 14,7 C 67 % 986,8 hPa 0,0 l/m 0,0 km/h N-NO 8,6 C 14,7 C 0,0 km/h
11.09.2014 20:00 13,9 C 72 % 987,2 hPa 0,0 l/m 0,0 km/h N-NO 8,9 C 13,9 C 0,0 km/h
11.09.2014 21:00 12,9 C 76 % 987,6 hPa 0,0 l/m 0,0 km/h N-NO 8,8 C 12,9 C 0,0 km/h
11.09.2014 22:00 11,4 C 80 % 987,7 hPa 0,0 l/m 0,0 km/h N-NO 8,1 C 11,4 C 0,0 km/h
11.09.2014 23:00 10,2 C 82 % 987,7 hPa 0,0 l/m 0,0 km/h N-NO 7,3 C 10,2 C 0,0 km/h
12.09.2014 00:00 9,5 C 84 % 988,1 hPa 0,0 l/m 0,0 km/h N-NO 6,9 C 9,5 C 0,0 km/h
12.09.2014 01:00 8,5 C 85 % 988,3 hPa 0,0 l/m 0,0 km/h N-NO 6,1 C 8,5 C 0,0 km/h
12.09.2014 02:00 8,5 C 85 % 988,2 hPa 0,0 l/m 0,0 km/h N-NO 6,1 C 8,5 C 0,0 km/h
12.09.2014 03:00 8,9 C 85 % 988,3 hPa 0,0 l/m 0,0 km/h N-NO 6,5 C 8,9 C 0,0 km/h
12.09.2014 04:00 8,6 C 85 % 988,3 hPa 0,0 l/m 0,0 km/h N-NO 6,2 C 8,6 C 0,0 km/h
12.09.2014 05:00 8,5 C 86 % 988,0 hPa 0,0 l/m 0,0 km/h N-NO 6,3 C 8,5 C 0,0 km/h
12.09.2014 06:00 9,2 C 85 % 988,3 hPa 0,0 l/m 0,0 km/h N-NO 6,8 C 9,2 C 0,0 km/h
12.09.2014 07:00 9,9 C 85 % 988,7 hPa 0,0 l/m 0,0 km/h O-SO 7,5 C 9,9 C 0,0 km/h
12.09.2014 08:00 10,6 C 84 % 988,9 hPa 0,0 l/m 0,0 km/h SO 8,0 C 10,6 C 0,0 km/h
12.09.2014 09:00 11,2 C 84 % 988,8 hPa 0,0 l/m 0,0 km/h S-SO 8,6 C 11,2 C 0,0 km/h
12.09.2014 10:00 11,9 C 84 % 989,0 hPa 0,0 l/m 0,0 km/h W-SW 9,3 C 11,9 C 0,0 km/h
12.09.2014 11:00 12,3 C 85 % 988,8 hPa 0,4 l/m 0,0 km/h W 9,9 C 12,3 C 0,0 km/h
12.09.2014 12:00 12,4 C 84 % 988,3 hPa 0,8 l/m 3,2 km/h W 9,8 C 12,4 C 1,8 km/h
12.09.2014 13:00 12,1 C 84 % 988,2 hPa 0,4 l/m 2,6 km/h W 9,5 C 12,1 C 1,4 km/h
12.09.2014 14:00 12,5 C 83 % 988,5 hPa 0,0 l/m 0,0 km/h N 9,7 C 12,5 C 0,0 km/h
12.09.2014 15:00 12,6 C 84 % 988,9 hPa 0,2 l/m 0,0 km/h SW 10,0 C 12,6 C 0,0 km/h
12.09.2014 16:00 12,3 C 84 % 988,8 hPa 0,2 l/m 0,0 km/h S-SW 9,7 C 12,3 C 0,0 km/h
12.09.2014 17:00 12,4 C 84 % 988,7 hPa 0,2 l/m 0,0 km/h W-SW 9,8 C 12,4 C 0,0 km/h
12.09.2014 18:00 12,5 C 82 % 988,8 hPa 0,4 l/m 0,0 km/h W 9,5 C 12,5 C 0,0 km/h
12.09.2014 19:00 12,6 C 81 % 989,0 hPa 0,6 l/m 0,0 km/h W 9,4 C 12,6 C 0,0 km/h
12.09.2014 20:00 12,8 C 79 % 989,2 hPa 0,4 l/m 0,0 km/h W 9,2 C 12,8 C 0,0 km/h
12.09.2014 21:00 12,9 C 78 % 989,5 hPa 0,0 l/m 0,0 km/h S-SW 9,2 C 12,9 C 0,0 km/h
12.09.2014 22:00 12,6 C 77 % 989,6 hPa 0,2 l/m 0,0 km/h W-SW 8,7 C 12,6 C 0,0 km/h
12.09.2014 23:00 12,4 C 77 % 989,6 hPa 0,4 l/m 1,4 km/h W 8,5 C 12,4 C 1,4 km/h
13.09.2014 00:00 12,5 C 76 % 989,7 hPa 0,2 l/m 0,4 km/h W-SW 8,4 C 12,5 C 0,4 km/h
13.09.2014 01:00 12,6 C 75 % 990,0 hPa 0,2 l/m 0,0 km/h W-SW 8,3 C 12,6 C 0,0 km/h
13.09.2014 02:00 12,6 C 75 % 989,8 hPa 0,2 l/m 0,0 km/h S-SO 8,3 C 12,6 C 0,0 km/h
13.09.2014 03:00 12,7 C 75 % 989,8 hPa 0,0 l/m 0,0 km/h S-SO 8,4 C 12,7 C 0,0 km/h
13.09.2014 04:00 12,8 C 75 % 989,8 hPa 0,2 l/m 0,0 km/h S-SO 8,5 C 12,8 C 0,0 km/h
13.09.2014 05:00 12,8 C 75 % 989,8 hPa 0,0 l/m 0,0 km/h S-SO 8,5 C 12,8 C 0,0 km/h
13.09.2014 06:00 12,9 C 75 % 990,3 hPa 0,0 l/m 0,0 km/h S-SO 8,6 C 12,9 C 0,0 km/h
13.09.2014 07:00 13,1 C 75 % 990,7 hPa 0,0 l/m 0,0 km/h S-SO 8,8 C 13,1 C 0,0 km/h
13.09.2014 08:00 13,6 C 76 % 990,9 hPa 0,0 l/m 0,0 km/h S-SO 9,4 C 13,6 C 0,0 km/h
13.09.2014 09:00 15,5 C 77 % 991,0 hPa 0,0 l/m 0,0 km/h SO 11,5 C 15,5 C 0,0 km/h
13.09.2014 10:00 20,3 C 85 % 991,1 hPa 0,0 l/m 0,0 km/h NW 17,7 C 20,3 C 0,0 km/h
13.09.2014 11:00 24,8 C 65 % 990,9 hPa 0,0 l/m 0,0 km/h W 17,8 C 24,8 C 0,0 km/h
13.09.2014 12:00 19,6 C 77 % 990,9 hPa 0,0 l/m 0,0 km/h W-NW 15,5 C 19,6 C 0,0 km/h
13.09.2014 13:00 21,4 C 75 % 990,5 hPa 0,0 l/m 0,0 km/h N-NO 16,8 C 21,4 C 0,0 km/h
13.09.2014 14:00 23,5 C 64 % 990,5 hPa 0,0 l/m 0,0 km/h N 16,3 C 23,5 C 0,0 km/h
13.09.2014 15:00 26,4 C 60 % 990,4 hPa 0,0 l/m 0,0 km/h N-NO 18,0 C 26,4 C 0,0 km/h
13.09.2014 16:00 29,2 C 49 % 990,3 hPa 0,0 l/m 0,0 km/h N-NO 17,4 C 29,2 C 0,0 km/h
13.09.2014 17:00 20,3 C 70 % 990,6 hPa 0,0 l/m 0,0 km/h N-NO 14,6 C 20,3 C 0,0 km/h
13.09.2014 18:00 19,3 C 74 % 990,8 hPa 0,0 l/m 0,0 km/h N-NO 14,5 C 19,3 C 0,0 km/h
13.09.2014 19:00 17,6 C 77 % 991,0 hPa 0,0 l/m 0,0 km/h N-NO 13,5 C 17,6 C 0,0 km/h
13.09.2014 20:00 16,7 C 80 % 991,4 hPa 0,0 l/m 0,0 km/h N-NO 13,2 C 16,7 C 0,0 km/h
13.09.2014 21:00 14,8 C 83 % 991,3 hPa 0,0 l/m 0,0 km/h O-SO 11,9 C 14,8 C 0,0 km/h
13.09.2014 22:00 14,3 C 84 % 991,2 hPa 0,0 l/m 0,0 km/h O-NO 11,6 C 14,3 C 0,0 km/h
13.09.2014 23:00 13,3 C 85 % 991,3 hPa 0,0 l/m 0,0 km/h NO 10,8 C 13,3 C 0,0 km/h
14.09.2014 00:00 13,3 C 85 % 990,8 hPa 0,0 l/m 0,0 km/h NO 10,8 C 13,3 C 0,0 km/h
14.09.2014 01:00 11,9 C 85 % 990,5 hPa 0,0 l/m 0,0 km/h O-NO 9,5 C 11,9 C 0,0 km/h
14.09.2014 02:00 12,6 C 84 % 990,4 hPa 0,0 l/m 0,0 km/h O 10,0 C 12,6 C 0,0 km/h
14.09.2014 03:00 12,9 C 84 % 989,9 hPa 0,0 l/m 0,0 km/h O 10,3 C 12,9 C 0,0 km/h
14.09.2014 04:00 12,8 C 84 % 989,7 hPa 0,0 l/m 0,0 km/h O 10,2 C 12,8 C 0,0 km/h
14.09.2014 05:00 13,1 C 83 % 989,4 hPa 0,0 l/m 0,0 km/h O-NO 10,3 C 13,1 C 0,0 km/h
14.09.2014 06:00 12,9 C 83 % 989,1 hPa 0,0 l/m 0,0 km/h S-SO 10,1 C 12,9 C 0,0 km/h
14.09.2014 07:00 13,3 C 82 % 989,2 hPa 0,0 l/m 0,0 km/h S-SO 10,3 C 13,3 C 0,0 km/h
14.09.2014 08:00 14,2 C 81 % 989,3 hPa 0,0 l/m 0,0 km/h N 11,0 C 14,2 C 0,0 km/h
14.09.2014 09:00 15,4 C 84 % 989,3 hPa 0,0 l/m 0,0 km/h NW 12,7 C 15,4 C 0,0 km/h
14.09.2014 10:00 19,6 C 81 % 989,0 hPa 0,0 l/m 0,0 km/h W 16,2 C 19,6 C 0,0 km/h
14.09.2014 11:00 22,9 C 66 % 988,5 hPa 0,0 l/m 0,0 km/h NO 16,2 C 22,9 C 0,0 km/h
14.09.2014 12:00 23,8 C 62 % 988,0 hPa 0,0 l/m 0,0 km/h N-NO 16,1 C 23,8 C 0,0 km/h
14.09.2014 13:00 25,1 C 57 % 987,4 hPa 0,0 l/m 1,9 km/h O 16,0 C 25,1 C 1,1 km/h
14.09.2014 14:00 26,9 C 53 % 986,8 hPa 0,0 l/m 0,0 km/h O 16,5 C 26,9 C 0,0 km/h
14.09.2014 15:00 30,9 C 44 % 986,3 hPa 0,0 l/m 0,0 km/h N-NO 17,2 C 30,9 C 0,0 km/h
14.09.2014 16:00 31,9 C 40 % 986,2 hPa 0,0 l/m 0,0 km/h N-NO 16,6 C 31,9 C 0,0 km/h
14.09.2014 17:00 31,1 C 41 % 985,8 hPa 0,0 l/m 0,0 km/h N-NO 16,3 C 31,1 C 0,0 km/h
14.09.2014 18:00 27,3 C 47 % 986,0 hPa 0,0 l/m 1,9 km/h N-NO 15,0 C 27,3 C 1,1 km/h
14.09.2014 19:00 18,1 C 66 % 986,1 hPa 0,0 l/m 0,0 km/h N-NO 11,6 C 18,1 C 0,0 km/h
14.09.2014 20:00 16,2 C 77 % 986,1 hPa 0,0 l/m 0,0 km/h SO 12,2 C 16,2 C 0,0 km/h
14.09.2014 21:00 14,7 C 81 % 986,4 hPa 0,0 l/m 0,0 km/h N-NO 11,5 C 14,7 C 0,0 km/h
14.09.2014 22:00 13,0 C 84 % 986,4 hPa 0,0 l/m 0,0 km/h N-NO 10,4 C 13,0 C 0,0 km/h
14.09.2014 23:00 12,6 C 85 % 986,4 hPa 0,0 l/m 0,0 km/h N-NO 10,1 C 12,6 C 0,0 km/h
Min-Datum _ 11.09.14 08.09.14 11.09.14 - 08.09.14 - 11.09.14 11.09.14 08.09.14
_ Min-Zeit 06:53 17:53 05:53 - 00:53 - 06:53 06:53 00:53
Minimum _ 8,2 C 36 % 985,0 hPa - 0,0 km/h - 6,0 C 8,2 C 0,0 km/h
Max-Datum _ 08.09.14 11.09.14 13.09.14 08.09.14 10.09.14 - 09.09.14 08.09.14 10.09.14
_ Max-Zeit 16:53 06:53 20:53 18:53 18:53 - 12:53 16:53 18:53
Maximum _ 35,9 C 86 % 991,4 hPa 0,8 l/m 23,3 km/h
N
- 19,2 C 35,9 C 13,0 km/h
N
Durchschnitt _ 17,5 C 73 % 987,6 hPa #6,0 l/m 0,8 km/h N-NO 12,2 C 17,4 C 0,4 km/h
www.sexauwetter.de